sensor_id;sensor_type;location;lat;lon;timestamp;pressure;altitude;pressure_sealevel;temperature;humidity
33265;BME280;31404;53.974;-1.086;2023-02-18T00:00:39;101639.12;;;8.03;100.00
33265;BME280;31404;53.974;-1.086;2023-02-18T00:05:35;101646.12;;;5.94;100.00
33265;BME280;31404;53.974;-1.086;2023-02-18T00:10:35;101635.03;;;7.13;100.00
33265;BME280;31404;53.974;-1.086;2023-02-18T00:15:35;101624.05;;;8.53;100.00
33265;BME280;31404;53.974;-1.086;2023-02-18T00:20:41;101614.13;;;7.36;100.00
33265;BME280;31404;53.974;-1.086;2023-02-18T00:25:34;101589.18;;;7.26;100.00
33265;BME280;31404;53.974;-1.086;2023-02-18T00:35:36;101555.96;;;7.65;100.00
33265;BME280;31404;53.974;-1.086;2023-02-18T00:40:37;101537.23;;;6.38;100.00
33265;BME280;31404;53.974;-1.086;2023-02-18T00:45:36;101518.45;;;7.09;100.00
33265;BME280;31404;53.974;-1.086;2023-02-18T00:50:34;101521.21;;;7.78;100.00
33265;BME280;31404;53.974;-1.086;2023-02-18T01:00:34;101510.01;;;8.24;100.00
33265;BME280;31404;53.974;-1.086;2023-02-18T01:05:36;101482.98;;;9.08;100.00
33265;BME280;31404;53.974;-1.086;2023-02-18T01:10:38;101481.38;;;8.80;100.00
33265;BME280;31404;53.974;-1.086;2023-02-18T01:15:34;101460.28;;;8.61;100.00
33265;BME280;31404;53.974;-1.086;2023-02-18T01:20:37;101432.44;;;8.43;100.00
33265;BME280;31404;53.974;-1.086;2023-02-18T01:25:35;101427.86;;;9.85;100.00
33265;BME280;31404;53.974;-1.086;2023-02-18T01:30:34;101438.48;;;8.60;100.00
33265;BME280;31404;53.974;-1.086;2023-02-18T01:35:38;101429.25;;;8.48;100.00
33265;BME280;31404;53.974;-1.086;2023-02-18T01:40:36;101437.40;;;7.67;100.00
33265;BME280;31404;53.974;-1.086;2023-02-18T01:55:35;101406.22;;;8.56;100.00
33265;BME280;31404;53.974;-1.086;2023-02-18T02:00:35;101413.19;;;8.44;100.00
33265;BME280;31404;53.974;-1.086;2023-02-18T02:05:35;101402.22;;;7.73;100.00
33265;BME280;31404;53.974;-1.086;2023-02-18T02:35:37;101330.35;;;8.88;100.00
33265;BME280;31404;53.974;-1.086;2023-02-18T02:40:39;101316.86;;;8.68;100.00
33265;BME280;31404;53.974;-1.086;2023-02-18T02:50:42;101300.05;;;7.67;100.00
33265;BME280;31404;53.974;-1.086;2023-02-18T02:55:36;101308.11;;;7.79;100.00
33265;BME280;31404;53.974;-1.086;2023-02-18T03:20:36;101265.25;;;7.27;100.00
33265;BME280;31404;53.974;-1.086;2023-02-18T03:25:37;101255.98;;;7.07;100.00
33265;BME280;31404;53.974;-1.086;2023-02-18T03:35:36;101246.28;;;7.76;100.00
33265;BME280;31404;53.974;-1.086;2023-02-18T03:40:35;101252.50;;;8.07;100.00
33265;BME280;31404;53.974;-1.086;2023-02-18T03:45:35;101248.68;;;7.87;100.00
33265;BME280;31404;53.974;-1.086;2023-02-18T03:50:36;101236.50;;;8.03;100.00
33265;BME280;31404;53.974;-1.086;2023-02-18T03:55:36;101236.62;;;7.11;100.00
33265;BME280;31404;53.974;-1.086;2023-02-18T04:00:35;101221.90;;;6.15;100.00
33265;BME280;31404;53.974;-1.086;2023-02-18T04:05:35;101229.43;;;6.79;100.00
33265;BME280;31404;53.974;-1.086;2023-02-18T04:10:36;101233.04;;;6.80;100.00
33265;BME280;31404;53.974;-1.086;2023-02-18T04:15:28;101230.70;;;7.77;100.00
33265;BME280;31404;53.974;-1.086;2023-02-18T04:20:36;101234.64;;;6.82;100.00
33265;BME280;31404;53.974;-1.086;2023-02-18T04:25:36;101235.73;;;7.44;100.00
33265;BME280;31404;53.974;-1.086;2023-02-18T04:30:35;101232.40;;;7.53;100.00
33265;BME280;31404;53.974;-1.086;2023-02-18T04:35:34;101226.45;;;6.98;100.00
33265;BME280;31404;53.974;-1.086;2023-02-18T04:40:34;101235.76;;;6.68;100.00
33265;BME280;31404;53.974;-1.086;2023-02-18T04:45:35;101229.90;;;7.29;100.00
33265;BME280;31404;53.974;-1.086;2023-02-18T04:50:36;101234.34;;;7.24;100.00
33265;BME280;31404;53.974;-1.086;2023-02-18T04:55:35;101244.79;;;6.67;100.00
33265;BME280;31404;53.974;-1.086;2023-02-18T05:00:36;101234.22;;;6.85;100.00
33265;BME280;31404;53.974;-1.086;2023-02-18T05:05:35;101229.01;;;8.05;100.00
33265;BME280;31404;53.974;-1.086;2023-02-18T05:10:37;101210.45;;;8.15;100.00
33265;BME280;31404;53.974;-1.086;2023-02-18T05:15:34;101212.63;;;7.87;100.00
33265;BME280;31404;53.974;-1.086;2023-02-18T05:20:35;101203.02;;;8.61;100.00
33265;BME280;31404;53.974;-1.086;2023-02-18T05:25:35;101209.61;;;7.42;100.00
33265;BME280;31404;53.974;-1.086;2023-02-18T05:30:36;101208.93;;;7.02;100.00
33265;BME280;31404;53.974;-1.086;2023-02-18T05:35:34;101203.92;;;7.31;100.00
33265;BME280;31404;53.974;-1.086;2023-02-18T05:40:34;101189.12;;;7.89;100.00
33265;BME280;31404;53.974;-1.086;2023-02-18T05:45:34;101204.39;;;6.84;100.00
33265;BME280;31404;53.974;-1.086;2023-02-18T05:50:35;101199.18;;;7.03;100.00
33265;BME280;31404;53.974;-1.086;2023-02-18T05:55:35;101198.97;;;7.56;100.00
33265;BME280;31404;53.974;-1.086;2023-02-18T06:00:35;101216.64;;;7.62;100.00
33265;BME280;31404;53.974;-1.086;2023-02-18T06:05:36;101227.60;;;7.50;100.00
33265;BME280;31404;53.974;-1.086;2023-02-18T06:10:34;101237.17;;;6.98;100.00
33265;BME280;31404;53.974;-1.086;2023-02-18T06:15:35;101235.92;;;6.72;100.00
33265;BME280;31404;53.974;-1.086;2023-02-18T06:20:36;101254.55;;;6.08;100.00
33265;BME280;31404;53.974;-1.086;2023-02-18T06:25:39;101249.66;;;7.16;100.00
33265;BME280;31404;53.974;-1.086;2023-02-18T06:30:36;101253.51;;;6.40;100.00
33265;BME280;31404;53.974;-1.086;2023-02-18T06:35:34;101243.06;;;6.75;100.00
33265;BME280;31404;53.974;-1.086;2023-02-18T06:40:35;101257.33;;;6.78;100.00
33265;BME280;31404;53.974;-1.086;2023-02-18T06:45:35;101259.74;;;6.14;100.00
33265;BME280;31404;53.974;-1.086;2023-02-18T06:50:36;101261.98;;;6.38;100.00
33265;BME280;31404;53.974;-1.086;2023-02-18T06:55:35;101267.54;;;6.48;100.00
33265;BME280;31404;53.974;-1.086;2023-02-18T07:00:35;101266.37;;;6.62;100.00
33265;BME280;31404;53.974;-1.086;2023-02-18T07:05:35;101289.63;;;6.73;100.00
33265;BME280;31404;53.974;-1.086;2023-02-18T07:10:36;101291.85;;;6.90;100.00
33265;BME280;31404;53.974;-1.086;2023-02-18T07:15:34;101303.28;;;6.74;100.00
33265;BME280;31404;53.974;-1.086;2023-02-18T07:20:29;101309.74;;;6.47;100.00
33265;BME280;31404;53.974;-1.086;2023-02-18T07:25:34;101321.18;;;6.93;100.00
33265;BME280;31404;53.974;-1.086;2023-02-18T07:30:34;101315.55;;;6.88;100.00
33265;BME280;31404;53.974;-1.086;2023-02-18T07:35:34;101329.01;;;6.57;100.00
33265;BME280;31404;53.974;-1.086;2023-02-18T07:40:34;101325.81;;;7.50;100.00
33265;BME280;31404;53.974;-1.086;2023-02-18T07:45:36;101325.40;;;7.13;100.00
33265;BME280;31404;53.974;-1.086;2023-02-18T07:50:35;101311.50;;;6.16;100.00
33265;BME280;31404;53.974;-1.086;2023-02-18T07:55:36;101320.21;;;6.46;100.00
33265;BME280;31404;53.974;-1.086;2023-02-18T08:00:36;101313.07;;;6.21;100.00
33265;BME280;31404;53.974;-1.086;2023-02-18T08:05:34;101307.03;;;5.65;100.00
33265;BME280;31404;53.974;-1.086;2023-02-18T08:10:34;101321.82;;;5.96;100.00
33265;BME280;31404;53.974;-1.086;2023-02-18T08:15:34;101346.62;;;6.99;100.00
33265;BME280;31404;53.974;-1.086;2023-02-18T08:20:35;101374.27;;;6.08;100.00
33265;BME280;31404;53.974;-1.086;2023-02-18T08:25:34;101362.66;;;7.07;100.00
33265;BME280;31404;53.974;-1.086;2023-02-18T08:30:34;101374.64;;;6.97;100.00
33265;BME280;31404;53.974;-1.086;2023-02-18T08:35:34;101382.25;;;7.05;100.00
33265;BME280;31404;53.974;-1.086;2023-02-18T08:40:34;101390.44;;;7.41;100.00
33265;BME280;31404;53.974;-1.086;2023-02-18T08:45:35;101387.67;;;7.05;100.00
33265;BME280;31404;53.974;-1.086;2023-02-18T08:50:35;101375.55;;;7.34;100.00
33265;BME280;31404;53.974;-1.086;2023-02-18T08:55:35;101367.03;;;7.21;100.00
33265;BME280;31404;53.974;-1.086;2023-02-18T09:00:36;101373.39;;;6.03;100.00
33265;BME280;31404;53.974;-1.086;2023-02-18T09:05:34;101372.32;;;6.69;100.00
33265;BME280;31404;53.974;-1.086;2023-02-18T09:10:35;101389.89;;;6.44;100.00
33265;BME280;31404;53.974;-1.086;2023-02-18T09:15:35;101400.64;;;6.56;100.00
33265;BME280;31404;53.974;-1.086;2023-02-18T09:20:34;101402.96;;;6.56;100.00
33265;BME280;31404;53.974;-1.086;2023-02-18T09:25:34;101404.03;;;7.09;100.00
33265;BME280;31404;53.974;-1.086;2023-02-18T09:30:34;101411.18;;;7.65;100.00
33265;BME280;31404;53.974;-1.086;2023-02-18T09:40:38;101445.43;;;7.69;100.00
33265;BME280;31404;53.974;-1.086;2023-02-18T09:45:36;101468.17;;;8.48;100.00
33265;BME280;31404;53.974;-1.086;2023-02-18T09:50:35;101475.76;;;8.25;100.00
33265;BME280;31404;53.974;-1.086;2023-02-18T09:55:37;101485.11;;;8.02;100.00
33265;BME280;31404;53.974;-1.086;2023-02-18T10:00:36;101500.85;;;8.65;100.00
33265;BME280;31404;53.974;-1.086;2023-02-18T10:05:36;101505.07;;;7.68;100.00
33265;BME280;31404;53.974;-1.086;2023-02-18T10:10:41;101516.43;;;7.46;100.00
33265;BME280;31404;53.974;-1.086;2023-02-18T10:15:36;101507.52;;;7.94;100.00
33265;BME280;31404;53.974;-1.086;2023-02-18T10:20:35;101509.12;;;8.59;100.00
33265;BME280;31404;53.974;-1.086;2023-02-18T10:50:39;101533.65;;;7.87;100.00
33265;BME280;31404;53.974;-1.086;2023-02-18T10:55:37;101524.55;;;7.41;100.00
33265;BME280;31404;53.974;-1.086;2023-02-18T11:05:36;101527.99;;;7.67;100.00
33265;BME280;31404;53.974;-1.086;2023-02-18T11:15:35;101528.95;;;8.46;100.00
33265;BME280;31404;53.974;-1.086;2023-02-18T11:20:38;101541.21;;;7.68;100.00
33265;BME280;31404;53.974;-1.086;2023-02-18T11:25:36;101551.55;;;7.93;100.00
33265;BME280;31404;53.974;-1.086;2023-02-18T11:30:36;101553.71;;;8.35;100.00
33265;BME280;31404;53.974;-1.086;2023-02-18T11:35:35;101569.04;;;8.16;100.00
33265;BME280;31404;53.974;-1.086;2023-02-18T11:40:35;101577.05;;;9.45;96.96
33265;BME280;31404;53.974;-1.086;2023-02-18T11:45:35;101578.75;;;10.96;90.55
33265;BME280;31404;53.974;-1.086;2023-02-18T11:50:35;101594.96;;;9.08;97.50
33265;BME280;31404;53.974;-1.086;2023-02-18T11:55:36;101593.85;;;8.60;100.00
33265;BME280;31404;53.974;-1.086;2023-02-18T12:00:39;101592.46;;;8.56;99.69
33265;BME280;31404;53.974;-1.086;2023-02-18T12:05:36;101589.61;;;8.26;100.00
33265;BME280;31404;53.974;-1.086;2023-02-18T13:15:38;101571.01;;;10.17;94.66
33265;BME280;31404;53.974;-1.086;2023-02-18T13:25:37;101582.41;;;8.84;96.22
33265;BME280;31404;53.974;-1.086;2023-02-18T13:35:39;101588.67;;;9.76;92.29
33265;BME280;31404;53.974;-1.086;2023-02-18T13:40:34;101585.11;;;9.20;94.75
33265;BME280;31404;53.974;-1.086;2023-02-18T13:45:34;101578.27;;;8.51;99.31
33265;BME280;31404;53.974;-1.086;2023-02-18T14:05:39;101553.26;;;9.47;94.56
33265;BME280;31404;53.974;-1.086;2023-02-18T14:10:36;101554.44;;;9.71;94.47
33265;BME280;31404;53.974;-1.086;2023-02-18T14:25:39;101557.90;;;8.44;100.00
33265;BME280;31404;53.974;-1.086;2023-02-18T14:35:40;101548.81;;;8.36;100.00
33265;BME280;31404;53.974;-1.086;2023-02-18T14:50:37;101547.35;;;8.69;100.00
33265;BME280;31404;53.974;-1.086;2023-02-18T14:55:37;101556.64;;;8.15;100.00
33265;BME280;31404;53.974;-1.086;2023-02-18T15:05:37;101573.21;;;6.86;100.00
33265;BME280;31404;53.974;-1.086;2023-02-18T15:10:38;101571.06;;;6.53;100.00
33265;BME280;31404;53.974;-1.086;2023-02-18T15:15:36;101560.39;;;6.80;100.00
33265;BME280;31404;53.974;-1.086;2023-02-18T15:20:37;101561.93;;;6.84;100.00
33265;BME280;31404;53.974;-1.086;2023-02-18T15:25:35;101570.56;;;7.00;100.00
33265;BME280;31404;53.974;-1.086;2023-02-18T15:30:36;101553.54;;;8.11;100.00
33265;BME280;31404;53.974;-1.086;2023-02-18T15:40:36;101553.07;;;7.02;100.00
33265;BME280;31404;53.974;-1.086;2023-02-18T15:45:38;101546.76;;;6.87;100.00
33265;BME280;31404;53.974;-1.086;2023-02-18T15:50:37;101547.98;;;7.30;100.00
33265;BME280;31404;53.974;-1.086;2023-02-18T15:55:37;101555.21;;;6.87;100.00
33265;BME280;31404;53.974;-1.086;2023-02-18T16:05:37;101561.74;;;6.78;100.00
33265;BME280;31404;53.974;-1.086;2023-02-18T16:15:38;101556.24;;;7.22;100.00
33265;BME280;31404;53.974;-1.086;2023-02-18T16:20:37;101549.12;;;7.35;100.00
33265;BME280;31404;53.974;-1.086;2023-02-18T16:30:35;101536.40;;;9.37;100.00
33265;BME280;31404;53.974;-1.086;2023-02-18T16:40:36;101557.03;;;7.41;100.00
33265;BME280;31404;53.974;-1.086;2023-02-18T16:45:37;101547.92;;;5.77;100.00
33265;BME280;31404;53.974;-1.086;2023-02-18T16:50:40;101551.55;;;6.10;100.00
33265;BME280;31404;53.974;-1.086;2023-02-18T16:55:34;101543.77;;;6.35;100.00
33265;BME280;31404;53.974;-1.086;2023-02-18T17:00:34;101557.33;;;5.81;100.00
33265;BME280;31404;53.974;-1.086;2023-02-18T17:05:35;101541.02;;;6.28;100.00
33265;BME280;31404;53.974;-1.086;2023-02-18T17:15:35;101509.59;;;5.31;100.00
33265;BME280;31404;53.974;-1.086;2023-02-18T17:20:34;101509.41;;;5.98;100.00
33265;BME280;31404;53.974;-1.086;2023-02-18T17:25:38;101516.28;;;6.00;100.00
33265;BME280;31404;53.974;-1.086;2023-02-18T17:30:36;101516.05;;;6.42;100.00
33265;BME280;31404;53.974;-1.086;2023-02-18T17:40:35;101503.63;;;8.20;100.00
33265;BME280;31404;53.974;-1.086;2023-02-18T17:45:38;101541.09;;;7.31;100.00
33265;BME280;31404;53.974;-1.086;2023-02-18T17:50:35;101546.85;;;7.49;100.00
33265;BME280;31404;53.974;-1.086;2023-02-18T17:55:36;101553.68;;;6.75;100.00
33265;BME280;31404;53.974;-1.086;2023-02-18T18:00:36;101562.72;;;6.23;100.00
33265;BME280;31404;53.974;-1.086;2023-02-18T18:05:37;101563.90;;;6.58;100.00
33265;BME280;31404;53.974;-1.086;2023-02-18T18:10:37;101580.77;;;6.26;100.00
33265;BME280;31404;53.974;-1.086;2023-02-18T18:15:38;101573.44;;;5.82;100.00
33265;BME280;31404;53.974;-1.086;2023-02-18T18:20:35;101563.44;;;6.57;100.00
33265;BME280;31404;53.974;-1.086;2023-02-18T18:25:37;101575.91;;;6.21;100.00
33265;BME280;31404;53.974;-1.086;2023-02-18T18:30:38;101574.72;;;6.91;100.00
33265;BME280;31404;53.974;-1.086;2023-02-18T18:35:35;101589.09;;;7.19;100.00
33265;BME280;31404;53.974;-1.086;2023-02-18T18:40:34;101586.91;;;7.25;100.00
33265;BME280;31404;53.974;-1.086;2023-02-18T18:55:36;101570.88;;;7.14;100.00
33265;BME280;31404;53.974;-1.086;2023-02-18T19:00:37;101580.20;;;6.66;100.00
33265;BME280;31404;53.974;-1.086;2023-02-18T19:05:36;101584.28;;;8.11;100.00
33265;BME280;31404;53.974;-1.086;2023-02-18T19:10:36;101584.67;;;7.76;100.00
33265;BME280;31404;53.974;-1.086;2023-02-18T19:15:35;101592.03;;;8.07;100.00
33265;BME280;31404;53.974;-1.086;2023-02-18T19:20:35;101589.62;;;8.51;100.00
33265;BME280;31404;53.974;-1.086;2023-02-18T19:25:35;101598.20;;;9.40;100.00
33265;BME280;31404;53.974;-1.086;2023-02-18T19:30:35;101595.94;;;8.61;100.00
33265;BME280;31404;53.974;-1.086;2023-02-18T19:40:35;101585.03;;;8.16;100.00
33265;BME280;31404;53.974;-1.086;2023-02-18T19:50:36;101592.04;;;7.49;100.00
33265;BME280;31404;53.974;-1.086;2023-02-18T19:55:35;101597.66;;;6.96;100.00
33265;BME280;31404;53.974;-1.086;2023-02-18T20:00:35;101593.89;;;6.45;100.00
33265;BME280;31404;53.974;-1.086;2023-02-18T20:05:36;101597.81;;;7.42;100.00
33265;BME280;31404;53.974;-1.086;2023-02-18T20:10:35;101597.50;;;6.98;100.00
33265;BME280;31404;53.974;-1.086;2023-02-18T20:15:35;101596.57;;;7.33;100.00
33265;BME280;31404;53.974;-1.086;2023-02-18T20:20:35;101592.00;;;6.30;100.00
33265;BME280;31404;53.974;-1.086;2023-02-18T20:25:37;101596.58;;;5.54;100.00
33265;BME280;31404;53.974;-1.086;2023-02-18T20:30:35;101588.52;;;6.47;100.00
33265;BME280;31404;53.974;-1.086;2023-02-18T20:35:35;101582.84;;;6.79;100.00
33265;BME280;31404;53.974;-1.086;2023-02-18T20:40:35;101589.89;;;6.69;100.00
33265;BME280;31404;53.974;-1.086;2023-02-18T20:45:35;101586.83;;;7.15;100.00
33265;BME280;31404;53.974;-1.086;2023-02-18T20:50:35;101593.88;;;6.80;100.00
33265;BME280;31404;53.974;-1.086;2023-02-18T20:55:36;101589.07;;;7.93;100.00
33265;BME280;31404;53.974;-1.086;2023-02-18T21:00:35;101591.98;;;6.83;100.00
33265;BME280;31404;53.974;-1.086;2023-02-18T21:05:34;101589.29;;;7.29;100.00
33265;BME280;31404;53.974;-1.086;2023-02-18T21:15:35;101604.09;;;7.22;100.00
33265;BME280;31404;53.974;-1.086;2023-02-18T21:20:35;101594.46;;;8.21;100.00
33265;BME280;31404;53.974;-1.086;2023-02-18T21:25:37;101607.39;;;7.52;100.00
33265;BME280;31404;53.974;-1.086;2023-02-18T21:30:37;101616.19;;;6.36;100.00
33265;BME280;31404;53.974;-1.086;2023-02-18T21:35:35;101622.78;;;6.24;100.00
33265;BME280;31404;53.974;-1.086;2023-02-18T21:40:35;101625.63;;;7.07;100.00
33265;BME280;31404;53.974;-1.086;2023-02-18T21:45:34;101635.65;;;6.29;100.00
33265;BME280;31404;53.974;-1.086;2023-02-18T21:50:35;101634.41;;;5.91;100.00
33265;BME280;31404;53.974;-1.086;2023-02-18T21:55:35;101631.78;;;6.48;100.00
33265;BME280;31404;53.974;-1.086;2023-02-18T22:00:36;101640.95;;;7.30;100.00
33265;BME280;31404;53.974;-1.086;2023-02-18T22:15:34;101636.88;;;6.56;100.00
33265;BME280;31404;53.974;-1.086;2023-02-18T22:20:37;101640.88;;;6.64;100.00
33265;BME280;31404;53.974;-1.086;2023-02-18T22:25:34;101654.91;;;7.08;100.00
33265;BME280;31404;53.974;-1.086;2023-02-18T22:30:34;101661.96;;;6.66;100.00
33265;BME280;31404;53.974;-1.086;2023-02-18T22:35:34;101664.36;;;6.42;100.00
33265;BME280;31404;53.974;-1.086;2023-02-18T22:40:34;101658.66;;;6.18;100.00
33265;BME280;31404;53.974;-1.086;2023-02-18T22:45:35;101656.40;;;5.88;100.00
33265;BME280;31404;53.974;-1.086;2023-02-18T22:50:35;101647.45;;;6.49;100.00
33265;BME280;31404;53.974;-1.086;2023-02-18T22:55:34;101660.29;;;6.29;100.00
33265;BME280;31404;53.974;-1.086;2023-02-18T23:00:35;101658.52;;;6.72;100.00
33265;BME280;31404;53.974;-1.086;2023-02-18T23:05:35;101671.67;;;6.69;100.00
33265;BME280;31404;53.974;-1.086;2023-02-18T23:10:34;101686.42;;;6.17;100.00
33265;BME280;31404;53.974;-1.086;2023-02-18T23:15:35;101683.72;;;6.29;100.00
33265;BME280;31404;53.974;-1.086;2023-02-18T23:20:35;101704.60;;;6.33;100.00
33265;BME280;31404;53.974;-1.086;2023-02-18T23:25:34;101715.80;;;6.39;100.00
33265;BME280;31404;53.974;-1.086;2023-02-18T23:30:34;101710.67;;;6.60;100.00
33265;BME280;31404;53.974;-1.086;2023-02-18T23:35:35;101712.75;;;6.43;100.00
33265;BME280;31404;53.974;-1.086;2023-02-18T23:40:35;101715.72;;;6.68;100.00
33265;BME280;31404;53.974;-1.086;2023-02-18T23:45:34;101729.16;;;6.57;100.00
33265;BME280;31404;53.974;-1.086;2023-02-18T23:50:35;101727.90;;;5.78;100.00
33265;BME280;31404;53.974;-1.086;2023-02-18T23:55:35;101738.84;;;6.17;100.00
